Time;durP1;ratioP1;P1;durP2;ratioP2;P2;SDS_P1;SDS_P2;PMS_P1;PMS_P2;Temp;Humidity;BMP_temperature;BMP_pressure;BME280_temperature;BME280_humidity;BME280_pressure;Samples;Min_cycle;Max_cycle;Signal;HPM_P1;HPM_P2
2024/01/07 00:01:50;;;;;;;;;;;-0.30;99.90;;;;;;5075338;28;19924;-65
2024/01/07 00:04:16;;;;;;;;;;;-0.30;99.90;;;;;;5092194;28;20427;-66
2024/01/07 00:06:42;;;;;;;;;;;-0.30;99.90;;;;;;5089355;28;19927;-66
2024/01/07 00:09:07;;;;;;;;;;;-0.20;99.90;;;;;;5060293;28;19923;-66
2024/01/07 00:11:33;;;;;;;;;;;-0.20;99.90;;;;;;5088099;28;19924;-66
2024/01/07 00:13:59;;;;;;;;;;;-0.30;99.90;;;;;;5081510;28;19963;-65
2024/01/07 00:16:24;;;;;;;;;;;-0.30;99.90;;;;;;5067649;28;20315;-66
2024/01/07 00:18:50;;;;;;;;;;;-0.30;99.90;;;;;;5084778;27;20714;-65
2024/01/07 00:21:15;;;;;;;;;;;-0.30;99.90;;;;;;5087729;28;19928;-65
2024/01/07 00:23:41;;;;;;;;;;;-0.30;99.90;;;;;;5083453;28;19930;-66
2024/01/07 00:26:07;;;;;;;;;;;-0.30;99.90;;;;;;5091219;28;20390;-66
2024/01/07 00:28:33;;;;;;;;;;;-0.30;99.90;;;;;;5084662;28;20285;-66
2024/01/07 00:30:58;;;;;;;;;;;-0.30;99.90;;;;;;5083782;28;19924;-66
2024/01/07 00:33:24;;;;;;;;;;;-0.30;99.90;;;;;;5090733;28;20275;-65
2024/01/07 00:35:49;;;;;;;;;;;-0.40;99.90;;;;;;5093666;28;19928;-66
2024/01/07 00:38:15;;;;;;;;;;;-0.40;99.90;;;;;;5105984;27;20018;-66
2024/01/07 00:40:40;;;;;;;;;;;-0.40;99.90;;;;;;5089567;28;20279;-67
2024/01/07 00:43:06;;;;;;;;;;;-0.30;99.90;;;;;;5070914;28;20405;-66
2024/01/07 00:45:32;;;;;;;;;;;-0.40;99.90;;;;;;5072905;28;19929;-66
2024/01/07 00:47:57;;;;;;;;;;;-0.40;99.90;;;;;;5109346;27;20299;-65
2024/01/07 00:50:23;;;;;;;;;;;-0.40;99.90;;;;;;5093110;28;19924;-66
2024/01/07 00:52:48;;;;;;;;;;;-0.40;99.90;;;;;;5056968;28;19945;-66
2024/01/07 00:55:14;;;;;;;;;;;-0.40;99.90;;;;;;5056231;28;20351;-66
2024/01/07 00:57:40;;;;;;;;;;;-0.40;99.90;;;;;;5078211;28;19924;-66
2024/01/07 01:00:06;;;;;;;;;;;-0.40;99.90;;;;;;5058094;28;20042;-65
2024/01/07 01:02:32;;;;;;;;;;;-0.40;99.90;;;;;;5067768;28;19931;-65
2024/01/07 01:04:58;;;;;;;;;;;-0.40;99.90;;;;;;5053915;28;19928;-66
2024/01/07 01:07:23;;;;;;;;;;;-0.30;99.90;;;;;;5068691;28;19928;-66
2024/01/07 01:09:49;;;;;;;;;;;-0.30;99.90;;;;;;5069852;28;19928;-66
2024/01/07 01:12:15;;;;;;;;;;;-0.30;99.90;;;;;;5079460;28;19978;-66
2024/01/07 01:14:40;;;;;;;;;;;-0.30;99.90;;;;;;5068246;28;20006;-66
2024/01/07 01:17:06;;;;;;;;;;;-0.30;99.90;;;;;;5060145;28;20275;-66
2024/01/07 01:19:31;;;;;;;;;;;-0.30;99.90;;;;;;5066988;28;19928;-66
2024/01/07 01:21:57;;;;;;;;;;;-0.30;99.90;;;;;;5068122;28;19928;-66
2024/01/07 01:24:23;;;;;;;;;;;-0.30;99.90;;;;;;5067867;28;19931;-66
2024/01/07 01:26:48;;;;;;;;;;;-0.30;99.90;;;;;;5057614;28;20317;-66
2024/01/07 01:29:14;;;;;;;;;;;-0.30;99.90;;;;;;5065284;28;20013;-66
2024/01/07 01:31:39;;;;;;;;;;;-0.30;99.90;;;;;;5062065;28;19985;-65
2024/01/07 01:34:05;;;;;;;;;;;-0.30;99.90;;;;;;5063176;28;19924;-66
2024/01/07 01:36:31;;;;;;;;;;;-0.30;99.90;;;;;;5073790;28;19928;-65
2024/01/07 01:38:56;;;;;;;;;;;-0.30;99.90;;;;;;5058029;28;19932;-66
2024/01/07 01:41:22;;;;;;;;;;;-0.30;99.90;;;;;;5055574;28;19967;-65
2024/01/07 01:43:47;;;;;;;;;;;-0.30;99.90;;;;;;5086337;28;19969;-67
2024/01/07 01:46:13;;;;;;;;;;;-0.30;99.90;;;;;;5071121;28;19932;-66
2024/01/07 01:48:39;;;;;;;;;;;-0.40;99.90;;;;;;5070903;28;19931;-65
2024/01/07 01:51:05;;;;;;;;;;;-0.30;99.90;;;;;;5077159;28;20279;-66
2024/01/07 01:53:31;;;;;;;;;;;-0.40;99.90;;;;;;5073992;28;20298;-65
2024/01/07 01:55:57;;;;;;;;;;;-0.40;99.90;;;;;;5089146;28;20570;-65
2024/01/07 01:58:23;;;;;;;;;;;-0.40;99.90;;;;;;5080741;28;19927;-65
2024/01/07 02:00:50;;;;;;;;;;;-0.40;99.90;;;;;;5067933;28;19924;-66
2024/01/07 02:03:19;;;;;;;;;;;-0.40;99.90;;;;;;5088047;28;19954;-65
2024/01/07 02:05:45;;;;;;;;;;;-0.40;99.90;;;;;;5070831;28;19972;-65
2024/01/07 02:08:11;;;;;;;;;;;-0.40;99.90;;;;;;5089298;28;20031;-66
2024/01/07 02:10:36;;;;;;;;;;;-0.40;99.90;;;;;;5070482;28;19927;-65
2024/01/07 02:13:03;;;;;;;;;;;-0.40;99.90;;;;;;5092721;28;19930;-66
2024/01/07 02:15:29;;;;;;;;;;;-0.40;99.90;;;;;;5092027;28;19985;-66
2024/01/07 02:17:54;;;;;;;;;;;-0.40;99.90;;;;;;5081846;28;19927;-66
2024/01/07 02:20:20;;;;;;;;;;;-0.40;99.90;;;;;;5085620;28;19935;-66
2024/01/07 02:22:45;;;;;;;;;;;-0.40;99.90;;;;;;5071262;28;19923;-65
2024/01/07 02:25:11;;;;;;;;;;;-0.40;99.90;;;;;;5064903;28;19928;-65
2024/01/07 02:27:37;;;;;;;;;;;-0.40;99.90;;;;;;5089282;28;19979;-65
2024/01/07 02:30:02;;;;;;;;;;;-0.40;99.90;;;;;;5087028;28;19930;-66
2024/01/07 02:32:28;;;;;;;;;;;-0.40;99.90;;;;;;5071031;28;20445;-65
2024/01/07 02:34:53;;;;;;;;;;;-0.40;99.90;;;;;;5095780;27;19933;-66
2024/01/07 02:37:19;;;;;;;;;;;-0.40;99.90;;;;;;5077095;27;19931;-66
2024/01/07 02:39:45;;;;;;;;;;;-0.40;99.90;;;;;;5094039;27;19926;-65
2024/01/07 02:42:10;;;;;;;;;;;-0.40;99.90;;;;;;5086100;27;19923;-65
2024/01/07 02:44:36;;;;;;;;;;;-0.40;99.90;;;;;;5088985;27;19934;-65
2024/01/07 02:47:02;;;;;;;;;;;-0.40;99.90;;;;;;5077392;27;19972;-66
2024/01/07 02:49:28;;;;;;;;;;;-0.40;99.90;;;;;;5092525;27;19928;-65
2024/01/07 02:51:53;;;;;;;;;;;-0.40;99.90;;;;;;5072287;27;19939;-65
2024/01/07 02:54:19;;;;;;;;;;;-0.40;99.90;;;;;;5064223;28;20379;-66
2024/01/07 02:56:44;;;;;;;;;;;-0.40;99.90;;;;;;5068988;28;19932;-65
2024/01/07 02:59:10;;;;;;;;;;;-0.40;99.90;;;;;;5067356;28;20063;-65
2024/01/07 03:01:40;;;;;;;;;;;-0.40;99.90;;;;;;5070743;28;19923;-66
2024/01/07 03:04:06;;;;;;;;;;;-0.40;99.90;;;;;;5066092;28;20528;-66
2024/01/07 03:06:32;;;;;;;;;;;-0.40;99.90;;;;;;5070882;28;20019;-65
2024/01/07 03:08:57;;;;;;;;;;;-0.40;99.90;;;;;;5073898;28;20007;-65
2024/01/07 03:11:23;;;;;;;;;;;-0.30;99.90;;;;;;5072302;28;19973;-66
2024/01/07 03:13:49;;;;;;;;;;;-0.40;99.90;;;;;;5057505;28;20726;-65
2024/01/07 03:16:25;;;;;;;;;;;-0.30;99.90;;;;;;5064081;28;19927;-65
2024/01/07 03:18:50;;;;;;;;;;;-0.40;99.90;;;;;;5069262;28;20292;-65
2024/01/07 03:21:17;;;;;;;;;;;-0.40;99.90;;;;;;5067044;28;19928;-65
2024/01/07 03:23:42;;;;;;;;;;;-0.40;99.90;;;;;;5070313;28;19935;-66
2024/01/07 03:26:08;;;;;;;;;;;-0.40;99.90;;;;;;5064122;28;20268;-65
2024/01/07 03:28:33;;;;;;;;;;;-0.40;99.90;;;;;;5073453;28;19935;-66
2024/01/07 03:31:03;;;;;;;;;;;-0.40;99.90;;;;;;5066503;28;20352;-65
2024/01/07 03:33:29;;;;;;;;;;;-0.40;99.90;;;;;;5071302;28;20287;-66
2024/01/07 03:35:54;;;;;;;;;;;-0.40;99.90;;;;;;5055686;28;19927;-66
2024/01/07 03:38:20;;;;;;;;;;;-0.40;99.90;;;;;;5052122;28;19924;-66
2024/01/07 03:40:46;;;;;;;;;;;-0.40;99.90;;;;;;5055857;28;20335;-65
2024/01/07 03:43:12;;;;;;;;;;;-0.40;99.90;;;;;;5069996;28;19928;-65
2024/01/07 03:45:37;;;;;;;;;;;-0.50;99.90;;;;;;5068044;28;19982;-65
2024/01/07 03:48:03;;;;;;;;;;;-0.40;99.90;;;;;;5070978;28;19931;-66
2024/01/07 03:50:28;;;;;;;;;;;-0.40;99.90;;;;;;5064627;28;20230;-66
2024/01/07 03:52:54;;;;;;;;;;;-0.40;99.90;;;;;;5049242;28;20083;-66
2024/01/07 03:55:19;;;;;;;;;;;-0.40;99.90;;;;;;5054237;28;19928;-65
2024/01/07 03:57:45;;;;;;;;;;;-0.40;99.90;;;;;;5064634;28;20554;-66
2024/01/07 04:00:11;;;;;;;;;;;-0.40;99.90;;;;;;5047476;28;19924;-65
2024/01/07 04:02:36;;;;;;;;;;;-0.40;99.90;;;;;;5053602;28;19928;-65
2024/01/07 04:05:02;;;;;;;;;;;-0.40;99.90;;;;;;5067006;28;19979;-65
2024/01/07 04:07:28;;;;;;;;;;;-0.40;99.90;;;;;;5061814;28;19931;-65
2024/01/07 04:09:53;;;;;;;;;;;-0.40;99.90;;;;;;5091142;28;19936;-66
2024/01/07 04:12:19;;;;;;;;;;;-0.40;99.90;;;;;;5065649;28;20301;-65
2024/01/07 04:14:44;;;;;;;;;;;-0.40;99.90;;;;;;5051688;28;20559;-65
2024/01/07 04:17:10;;;;;;;;;;;-0.40;99.90;;;;;;5061986;28;19924;-66
2024/01/07 04:19:39;;;;;;;;;;;-0.40;99.90;;;;;;5049996;28;19972;-66
2024/01/07 04:22:04;;;;;;;;;;;-0.40;99.90;;;;;;5068240;28;19935;-65
2024/01/07 04:24:30;;;;;;;;;;;-0.40;99.90;;;;;;5061772;28;20318;-65
2024/01/07 04:26:56;;;;;;;;;;;-0.40;99.90;;;;;;5062173;28;20383;-66
2024/01/07 04:29:21;;;;;;;;;;;-0.40;99.90;;;;;;5065788;28;19924;-66
2024/01/07 04:31:47;;;;;;;;;;;-0.40;99.90;;;;;;5091044;28;19963;-65
2024/01/07 04:34:12;;;;;;;;;;;-0.40;99.90;;;;;;5078233;28;19935;-65
2024/01/07 04:36:38;;;;;;;;;;;-0.40;99.90;;;;;;5068892;28;20625;-65
2024/01/07 04:39:03;;;;;;;;;;;-0.40;99.90;;;;;;5068263;28;19935;-66
2024/01/07 04:41:29;;;;;;;;;;;-0.40;99.90;;;;;;5069562;28;19967;-66
2024/01/07 04:43:54;;;;;;;;;;;-0.30;99.90;;;;;;5070000;28;19923;-66
2024/01/07 04:46:20;;;;;;;;;;;-0.40;99.90;;;;;;5076715;28;20030;-65
2024/01/07 04:48:46;;;;;;;;;;;-0.40;99.90;;;;;;5059041;28;20168;-66
2024/01/07 04:51:11;;;;;;;;;;;-0.40;99.90;;;;;;5073461;28;20018;-65
2024/01/07 04:53:37;;;;;;;;;;;-0.40;99.90;;;;;;5067456;28;20356;-66
2024/01/07 04:56:03;;;;;;;;;;;-0.20;99.90;;;;;;5091918;27;19984;-66
2024/01/07 04:58:28;;;;;;;;;;;-0.40;99.90;;;;;;5096448;27;20263;-66
2024/01/07 05:00:54;;;;;;;;;;;-0.40;99.90;;;;;;5088985;27;19923;-66
2024/01/07 05:03:19;;;;;;;;;;;-0.40;99.90;;;;;;5091230;27;20041;-66
2024/01/07 05:05:45;;;;;;;;;;;-0.40;99.90;;;;;;5085320;27;20434;-66
2024/01/07 05:08:11;;;;;;;;;;;-0.40;99.90;;;;;;5088556;27;19927;-66
2024/01/07 05:10:36;;;;;;;;;;;-0.40;99.90;;;;;;5077756;27;19950;-65
2024/01/07 05:13:06;;;;;;;;;;;-0.40;99.90;;;;;;5073682;27;20057;-66
2024/01/07 05:15:32;;;;;;;;;;;-0.40;99.90;;;;;;5067222;27;20259;-65
2024/01/07 05:17:58;;;;;;;;;;;-0.30;99.90;;;;;;5085589;27;19967;-65
2024/01/07 05:20:23;;;;;;;;;;;-0.40;99.90;;;;;;5087372;27;20019;-65
2024/01/07 05:22:49;;;;;;;;;;;-0.40;99.90;;;;;;5060872;27;19923;-65
2024/01/07 05:25:15;;;;;;;;;;;-0.40;99.90;;;;;;5088962;28;19927;-66
2024/01/07 05:27:40;;;;;;;;;;;-0.40;99.90;;;;;;5086094;27;20271;-65
2024/01/07 05:30:07;;;;;;;;;;;-0.30;99.90;;;;;;5091418;27;19978;-65
2024/01/07 05:32:33;;;;;;;;;;;-0.40;99.90;;;;;;5073336;27;20014;-65
2024/01/07 05:34:59;;;;;;;;;;;-0.30;99.90;;;;;;5081460;27;19927;-65
2024/01/07 05:37:24;;;;;;;;;;;-0.30;99.90;;;;;;5080927;28;19975;-66
2024/01/07 05:39:50;;;;;;;;;;;-0.30;99.90;;;;;;5083316;28;20018;-65
2024/01/07 05:42:16;;;;;;;;;;;-0.30;99.90;;;;;;5084895;28;20377;-66
2024/01/07 05:44:42;;;;;;;;;;;-0.40;99.90;;;;;;5063444;27;19980;-66
2024/01/07 05:47:08;;;;;;;;;;;-0.30;99.90;;;;;;5079405;28;19980;-66
2024/01/07 05:49:33;;;;;;;;;;;-0.30;99.90;;;;;;5082002;28;20538;-66
2024/01/07 05:51:59;;;;;;;;;;;-0.30;99.90;;;;;;5071191;28;19924;-65
2024/01/07 05:54:25;;;;;;;;;;;-0.30;99.90;;;;;;5087297;28;20301;-67
2024/01/07 05:56:51;;;;;;;;;;;-0.30;99.90;;;;;;5083933;28;19955;-66
2024/01/07 05:59:16;;;;;;;;;;;-0.30;99.90;;;;;;5093166;28;19923;-66
2024/01/07 06:01:42;;;;;;;;;;;-0.30;99.90;;;;;;5078436;28;19968;-66
2024/01/07 06:04:07;;;;;;;;;;;-0.30;99.90;;;;;;5080871;28;19928;-65
2024/01/07 06:06:34;;;;;;;;;;;-0.30;99.90;;;;;;5084219;27;20437;-65
2024/01/07 06:08:59;;;;;;;;;;;-0.30;99.90;;;;;;5093671;27;19928;-65
2024/01/07 06:11:25;;;;;;;;;;;-0.30;99.90;;;;;;5085738;27;19974;-66
2024/01/07 06:13:50;;;;;;;;;;;-0.30;99.90;;;;;;5058417;27;19934;-66
2024/01/07 06:16:16;;;;;;;;;;;-0.30;99.90;;;;;;5091054;27;19924;-66
2024/01/07 06:18:42;;;;;;;;;;;-0.20;99.90;;;;;;5074360;27;19923;-65
2024/01/07 06:21:07;;;;;;;;;;;-0.30;99.90;;;;;;5086706;27;20298;-66
2024/01/07 06:23:33;;;;;;;;;;;-0.30;99.90;;;;;;5067884;27;21215;-66
2024/01/07 06:25:59;;;;;;;;;;;-0.30;99.90;;;;;;5087870;27;19927;-66
2024/01/07 06:28:24;;;;;;;;;;;-0.30;99.90;;;;;;5088839;27;19945;-66
2024/01/07 06:30:50;;;;;;;;;;;-0.30;99.90;;;;;;5092774;27;21377;-65
2024/01/07 06:33:16;;;;;;;;;;;-0.30;99.90;;;;;;5095821;27;19923;-66
2024/01/07 06:35:41;;;;;;;;;;;-0.30;99.90;;;;;;5076088;27;19924;-66
2024/01/07 06:38:07;;;;;;;;;;;-0.30;99.90;;;;;;5073798;27;19938;-66
2024/01/07 06:40:32;;;;;;;;;;;-0.30;99.90;;;;;;5093259;27;20401;-66
2024/01/07 06:42:58;;;;;;;;;;;-0.30;99.90;;;;;;5089951;27;19930;-66
2024/01/07 06:45:23;;;;;;;;;;;-0.30;99.90;;;;;;5084471;27;20437;-65
2024/01/07 06:47:49;;;;;;;;;;;-0.30;99.90;;;;;;5086735;27;19930;-66
2024/01/07 06:50:15;;;;;;;;;;;-0.30;99.90;;;;;;5070866;27;20320;-65
2024/01/07 06:52:40;;;;;;;;;;;-0.30;99.90;;;;;;5094371;27;19981;-65
2024/01/07 06:55:06;;;;;;;;;;;-0.30;99.90;;;;;;5070310;27;19934;-66
2024/01/07 06:57:32;;;;;;;;;;;-0.30;99.90;;;;;;5066633;27;21527;-65
2024/01/07 06:59:57;;;;;;;;;;;-0.30;99.90;;;;;;5088010;27;19924;-65
2024/01/07 07:02:23;;;;;;;;;;;-0.30;99.90;;;;;;5079811;27;19934;-65
2024/01/07 07:04:50;;;;;;;;;;;-0.30;99.90;;;;;;5086123;27;21156;-66
2024/01/07 07:07:16;;;;;;;;;;;-0.30;99.90;;;;;;5117083;27;19985;-66
2024/01/07 07:09:41;;;;;;;;;;;-0.40;99.90;;;;;;5108677;27;19927;-65
2024/01/07 07:12:08;;;;;;;;;;;-0.40;99.90;;;;;;5091817;27;19924;-65
2024/01/07 07:14:33;;;;;;;;;;;-0.40;99.90;;;;;;5090454;27;20336;-66
2024/01/07 07:16:59;;;;;;;;;;;-0.50;99.90;;;;;;5086383;27;19935;-66
2024/01/07 07:19:24;;;;;;;;;;;-0.50;99.90;;;;;;5087597;27;19930;-65
2024/01/07 07:21:50;;;;;;;;;;;-0.50;99.90;;;;;;5068838;27;19970;-66
2024/01/07 07:24:16;;;;;;;;;;;-0.50;99.90;;;;;;5085528;27;20361;-66
2024/01/07 07:26:42;;;;;;;;;;;-0.50;99.90;;;;;;5086020;27;20566;-66
2024/01/07 07:29:11;;;;;;;;;;;-0.60;99.90;;;;;;5083810;27;20426;-65
2024/01/07 07:31:36;;;;;;;;;;;-0.60;99.90;;;;;;5087309;27;20346;-65
2024/01/07 07:34:05;;;;;;;;;;;-0.70;99.90;;;;;;5083762;27;20004;-66
2024/01/07 07:36:31;;;;;;;;;;;-0.70;99.90;;;;;;5069099;27;20409;-65
2024/01/07 07:38:56;;;;;;;;;;;-0.70;99.90;;;;;;5102589;27;20097;-66
2024/01/07 07:41:22;;;;;;;;;;;-0.70;99.90;;;;;;5069168;27;19930;-66
2024/01/07 07:43:48;;;;;;;;;;;-0.80;99.90;;;;;;5085210;27;20194;-66
2024/01/07 07:46:13;;;;;;;;;;;-0.80;99.90;;;;;;5090477;27;20405;-66
2024/01/07 07:48:39;;;;;;;;;;;-0.60;99.90;;;;;;5088435;27;19975;-65
2024/01/07 07:51:05;;;;;;;;;;;-0.80;99.90;;;;;;5086600;27;19923;-66
2024/01/07 07:53:31;;;;;;;;;;;-0.80;99.90;;;;;;5065773;27;19930;-66
2024/01/07 07:55:56;;;;;;;;;;;-0.80;99.90;;;;;;5084584;28;20235;-67
2024/01/07 07:58:22;;;;;;;;;;;-0.80;99.90;;;;;;5085526;28;20586;-65
2024/01/07 08:00:47;;;;;;;;;;;-0.80;99.90;;;;;;5034654;27;20288;-65
2024/01/07 08:03:13;;;;;;;;;;;-0.80;99.90;;;;;;5068712;28;20010;-66
2024/01/07 08:05:40;;;;;;;;;;;-0.80;99.90;;;;;;5079830;28;20015;-65
2024/01/07 08:08:06;;;;;;;;;;;-0.70;99.90;;;;;;5059834;28;20378;-65
2024/01/07 08:10:32;;;;;;;;;;;-0.70;99.90;;;;;;5080868;28;19924;-65
2024/01/07 08:12:58;;;;;;;;;;;-0.60;99.90;;;;;;5081270;28;19923;-65
2024/01/07 08:15:23;;;;;;;;;;;-0.60;99.90;;;;;;5049835;28;20522;-65
2024/01/07 08:17:51;;;;;;;;;;;-0.60;99.90;;;;;;5082175;28;20022;-65
2024/01/07 08:20:17;;;;;;;;;;;-0.60;99.90;;;;;;5085044;28;20083;-66
2024/01/07 08:22:42;;;;;;;;;;;-0.60;99.90;;;;;;5086471;28;19983;-65
2024/01/07 08:25:08;;;;;;;;;;;-0.50;99.90;;;;;;5086232;28;20287;-65
2024/01/07 08:27:34;;;;;;;;;;;-0.50;99.90;;;;;;5078561;28;19928;-65
2024/01/07 08:30:01;;;;;;;;;;;-0.50;99.90;;;;;;5069472;28;19935;-66
2024/01/07 08:32:27;;;;;;;;;;;-0.50;99.90;;;;;;5072453;28;19928;-66
2024/01/07 08:34:52;;;;;;;;;;;-0.50;99.90;;;;;;5077215;28;19924;-65
2024/01/07 08:37:18;;;;;;;;;;;-0.50;99.90;;;;;;5076080;28;19999;-66
2024/01/07 08:39:43;;;;;;;;;;;-0.50;99.90;;;;;;5076376;28;19928;-66
2024/01/07 08:42:09;;;;;;;;;;;-0.40;99.90;;;;;;5080508;28;20023;-66
2024/01/07 08:44:35;;;;;;;;;;;-0.40;99.90;;;;;;5078635;28;19928;-65
2024/01/07 08:47:00;;;;;;;;;;;-0.40;99.90;;;;;;5079576;28;19928;-66
2024/01/07 08:49:27;;;;;;;;;;;-0.40;99.90;;;;;;5075829;28;19924;-66
2024/01/07 08:51:53;;;;;;;;;;;-0.40;99.90;;;;;;5083507;27;20611;-65
2024/01/07 08:54:19;;;;;;;;;;;-0.30;99.90;;;;;;5078690;28;19939;-66
2024/01/07 08:56:45;;;;;;;;;;;-0.30;99.90;;;;;;5064318;28;19923;-66
2024/01/07 08:59:10;;;;;;;;;;;-0.30;99.90;;;;;;5070024;28;19928;-66
2024/01/07 09:01:36;;;;;;;;;;;-0.30;99.90;;;;;;5054527;28;19928;-65
2024/01/07 09:04:01;;;;;;;;;;;-0.30;99.90;;;;;;5062633;28;20367;-65
2024/01/07 09:06:27;;;;;;;;;;;-0.20;99.90;;;;;;5064574;28;20550;-66
2024/01/07 09:08:53;;;;;;;;;;;-0.20;99.90;;;;;;5057965;28;20018;-65
2024/01/07 09:11:19;;;;;;;;;;;-0.20;99.90;;;;;;5031760;28;19928;-65
2024/01/07 09:13:44;;;;;;;;;;;-0.20;99.90;;;;;;5067370;28;19928;-66
2024/01/07 09:16:11;;;;;;;;;;;-0.20;99.90;;;;;;5041370;28;19923;-65
2024/01/07 09:18:37;;;;;;;;;;;-0.10;99.90;;;;;;5060503;28;19967;-65
2024/01/07 09:21:02;;;;;;;;;;;-0.10;99.90;;;;;;5063341;28;20057;-66
2024/01/07 09:23:28;;;;;;;;;;;-0.10;99.90;;;;;;5084424;28;20469;-66
2024/01/07 09:25:54;;;;;;;;;;;-0.10;99.90;;;;;;5065723;28;19958;-65
2024/01/07 09:28:19;;;;;;;;;;;0.10;99.90;;;;;;5040918;28;19928;-66
2024/01/07 09:30:48;;;;;;;;;;;0.00;99.90;;;;;;5050209;28;19924;-65
2024/01/07 09:33:15;;;;;;;;;;;0.00;99.90;;;;;;5066045;28;19982;-66
2024/01/07 09:35:40;;;;;;;;;;;0.00;99.90;;;;;;5070587;28;20481;-67
2024/01/07 09:38:06;;;;;;;;;;;0.00;99.90;;;;;;5064548;28;20298;-66
2024/01/07 09:40:32;;;;;;;;;;;0.10;99.90;;;;;;5062168;28;19945;-66
2024/01/07 09:42:59;;;;;;;;;;;0.10;99.90;;;;;;5067649;28;19924;-65
2024/01/07 09:45:25;;;;;;;;;;;0.10;99.90;;;;;;5057249;28;19927;-65
2024/01/07 09:47:51;;;;;;;;;;;0.10;99.90;;;;;;5061777;28;19928;-66
2024/01/07 09:50:17;;;;;;;;;;;0.20;99.90;;;;;;5063894;28;20391;-66
2024/01/07 09:52:43;;;;;;;;;;;0.10;99.90;;;;;;5050993;28;19924;-66
2024/01/07 09:55:09;;;;;;;;;;;0.20;99.90;;;;;;5064979;28;19976;-66
2024/01/07 09:57:36;;;;;;;;;;;0.20;99.90;;;;;;5060859;28;20366;-65
2024/01/07 10:00:01;;;;;;;;;;;0.30;99.90;;;;;;5060112;28;19923;-66
2024/01/07 10:02:28;;;;;;;;;;;0.30;99.90;;;;;;5058740;28;20405;-66
2024/01/07 10:04:53;;;;;;;;;;;0.30;99.90;;;;;;5066143;28;19928;-65
2024/01/07 10:07:19;;;;;;;;;;;0.40;99.90;;;;;;5060632;28;19976;-66
2024/01/07 10:09:44;;;;;;;;;;;0.30;99.90;;;;;;5053091;28;20840;-65
2024/01/07 10:12:12;;;;;;;;;;;0.40;99.90;;;;;;5067831;28;19924;-65
2024/01/07 10:14:39;;;;;;;;;;;0.40;99.90;;;;;;5069285;28;20031;-65
2024/01/07 10:17:13;;;;;;;;;;;0.40;99.90;;;;;;5055659;28;20396;-65
2024/01/07 10:19:39;;;;;;;;;;;0.40;99.90;;;;;;5071830;28;19928;-65
2024/01/07 10:22:05;;;;;;;;;;;0.40;99.90;;;;;;5050809;28;20646;-66
2024/01/07 10:24:38;;;;;;;;;;;0.40;99.90;;;;;;5065499;28;19949;-66
2024/01/07 10:27:04;;;;;;;;;;;0.40;99.90;;;;;;5072355;28;20467;-65
2024/01/07 10:29:30;;;;;;;;;;;0.40;99.90;;;;;;5076158;28;19935;-65
2024/01/07 10:31:57;;;;;;;;;;;0.60;99.90;;;;;;5075468;28;19924;-66
2024/01/07 10:34:23;;;;;;;;;;;0.70;99.90;;;;;;5052866;28;19963;-66
2024/01/07 10:36:49;;;;;;;;;;;0.90;99.90;;;;;;5062010;28;19977;-66
2024/01/07 10:39:16;;;;;;;;;;;1.00;99.90;;;;;;5068774;28;19982;-66
2024/01/07 10:41:42;;;;;;;;;;;1.20;99.90;;;;;;5074856;28;19928;-66
2024/01/07 10:44:08;;;;;;;;;;;1.40;99.90;;;;;;5071800;28;19943;-65
2024/01/07 10:46:34;;;;;;;;;;;1.50;99.90;;;;;;5065122;28;19984;-65
2024/01/07 10:49:03;;;;;;;;;;;1.60;99.90;;;;;;5077700;28;19928;-66
2024/01/07 10:51:33;;;;;;;;;;;1.60;99.90;;;;;;5080891;28;19965;-66
2024/01/07 10:53:59;;;;;;;;;;;1.70;99.90;;;;;;5082190;27;19927;-66
2024/01/07 10:56:31;;;;;;;;;;;1.60;99.90;;;;;;5093241;27;19924;-66
2024/01/07 10:58:57;;;;;;;;;;;1.60;99.90;;;;;;5097268;27;19924;-66
2024/01/07 11:01:23;;;;;;;;;;;1.70;99.90;;;;;;5092089;27;19928;-65
2024/01/07 11:03:57;;;;;;;;;;;1.70;99.90;;;;;;5075258;27;20275;-65
2024/01/07 11:06:36;;;;;;;;;;;1.70;99.90;;;;;;5087590;27;19939;-65
2024/01/07 11:09:07;;;;;;;;;;;1.70;99.90;;;;;;5089259;27;19928;-66
2024/01/07 11:11:42;;;;;;;;;;;1.60;99.90;;;;;;5087194;27;19927;-66
2024/01/07 11:14:26;;;;;;;;;;;1.60;99.90;;;;;;5108581;27;19931;-66
2024/01/07 11:16:53;;;;;;;;;;;1.50;99.90;;;;;;5091069;27;19935;-64
2024/01/07 11:19:20;;;;;;;;;;;1.40;99.90;;;;;;5091727;27;19927;-65
2024/01/07 11:21:46;;;;;;;;;;;1.30;99.90;;;;;;5065752;27;19977;-64
2024/01/07 11:24:31;;;;;;;;;;;1.30;99.90;;;;;;5085274;27;19987;-64
2024/01/07 11:27:01;;;;;;;;;;;1.20;99.90;;;;;;5083430;27;20050;-65
2024/01/07 11:29:27;;;;;;;;;;;1.20;99.90;;;;;;5087863;27;19931;-65
2024/01/07 11:31:53;;;;;;;;;;;1.10;99.90;;;;;;5089315;27;19924;-65
2024/01/07 11:34:37;;;;;;;;;;;1.10;99.90;;;;;;5078515;27;19950;-65
2024/01/07 11:37:04;;;;;;;;;;;1.10;99.90;;;;;;5074833;27;19927;-68
2024/01/07 11:39:29;;;;;;;;;;;1.00;99.90;;;;;;5084137;27;19935;-67
2024/01/07 11:41:55;;;;;;;;;;;1.00;99.90;;;;;;5077948;27;20355;-67
2024/01/07 11:44:21;;;;;;;;;;;0.90;99.90;;;;;;5084160;27;19953;-67
2024/01/07 11:46:47;;;;;;;;;;;0.90;99.90;;;;;;5067101;27;19927;-67
2024/01/07 11:49:12;;;;;;;;;;;0.90;99.90;;;;;;5080662;27;20006;-67
2024/01/07 11:51:38;;;;;;;;;;;0.90;99.90;;;;;;5090374;27;20014;-67
2024/01/07 11:54:04;;;;;;;;;;;0.90;99.90;;;;;;5081204;27;19939;-67
2024/01/07 11:56:30;;;;;;;;;;;0.80;99.90;;;;;;5084181;27;19923;-67
2024/01/07 11:58:56;;;;;;;;;;;0.80;99.90;;;;;;5070356;27;20670;-67
2024/01/07 12:01:22;;;;;;;;;;;0.80;99.90;;;;;;5083564;27;19924;-67
2024/01/07 12:03:47;;;;;;;;;;;0.70;99.90;;;;;;5074370;27;20358;-67
2024/01/07 12:06:13;;;;;;;;;;;0.70;99.90;;;;;;5082214;27;20006;-67
2024/01/07 12:08:43;;;;;;;;;;;0.70;99.90;;;;;;5070384;27;19924;-67
2024/01/07 12:11:12;;;;;;;;;;;0.70;99.90;;;;;;5087135;27;20354;-67
2024/01/07 12:13:38;;;;;;;;;;;0.70;99.90;;;;;;5073560;27;19978;-67
2024/01/07 12:16:04;;;;;;;;;;;0.60;99.90;;;;;;5070774;27;19928;-67
2024/01/07 12:18:31;;;;;;;;;;;0.60;99.90;;;;;;5080671;27;19988;-67
2024/01/07 12:20:58;;;;;;;;;;;0.60;99.90;;;;;;5062481;27;19927;-67
2024/01/07 12:23:24;;;;;;;;;;;0.60;99.90;;;;;;5057251;27;20380;-67
2024/01/07 12:25:49;;;;;;;;;;;0.60;99.90;;;;;;5081276;27;20388;-68
2024/01/07 12:28:16;;;;;;;;;;;0.60;99.90;;;;;;5070538;27;19931;-68
2024/01/07 12:30:42;;;;;;;;;;;0.60;99.90;;;;;;5059943;27;20326;-68
2024/01/07 12:33:08;;;;;;;;;;;0.50;99.90;;;;;;5075704;27;19928;-68
2024/01/07 12:35:34;;;;;;;;;;;0.60;99.90;;;;;;5081931;28;19934;-68
2024/01/07 12:38:00;;;;;;;;;;;0.60;99.90;;;;;;5092507;27;20564;-68
2024/01/07 12:40:26;;;;;;;;;;;0.50;99.90;;;;;;5080146;27;19934;-68
2024/01/07 12:42:52;;;;;;;;;;;0.60;99.90;;;;;;5105859;27;19923;-68
2024/01/07 12:45:18;;;;;;;;;;;0.60;99.90;;;;;;5063415;27;19932;-68
2024/01/07 12:47:44;;;;;;;;;;;0.60;99.90;;;;;;5064322;27;20022;-68
2024/01/07 12:50:10;;;;;;;;;;;0.60;99.90;;;;;;5077447;28;19927;-68
2024/01/07 12:52:37;;;;;;;;;;;0.60;99.90;;;;;;5064544;27;19923;-68
2024/01/07 12:55:02;;;;;;;;;;;0.60;99.90;;;;;;5084623;27;19939;-68
2024/01/07 12:57:28;;;;;;;;;;;0.60;99.90;;;;;;5072283;27;19927;-68
2024/01/07 12:59:54;;;;;;;;;;;0.50;99.90;;;;;;5059705;27;20364;-68
2024/01/07 13:02:19;;;;;;;;;;;0.50;99.90;;;;;;5063655;27;19933;-68
2024/01/07 13:04:46;;;;;;;;;;;0.50;99.90;;;;;;5063977;27;19931;-68
2024/01/07 13:07:11;;;;;;;;;;;0.50;99.90;;;;;;5081781;27;20034;-68
2024/01/07 13:09:37;;;;;;;;;;;0.50;99.90;;;;;;5052299;27;20516;-68
2024/01/07 13:12:04;;;;;;;;;;;0.60;99.90;;;;;;5077238;27;20346;-68
2024/01/07 13:14:29;;;;;;;;;;;0.80;99.90;;;;;;5079974;27;19933;-68
2024/01/07 13:16:55;;;;;;;;;;;0.80;99.90;;;;;;5074960;27;20631;-68
2024/01/07 13:19:21;;;;;;;;;;;1.00;99.90;;;;;;5078789;28;19923;-68
2024/01/07 13:21:47;;;;;;;;;;;1.10;99.90;;;;;;5062817;27;19924;-68
2024/01/07 13:24:12;;;;;;;;;;;1.20;99.90;;;;;;5083680;27;20265;-68
2024/01/07 13:26:38;;;;;;;;;;;1.30;99.90;;;;;;5047525;28;20519;-68
2024/01/07 13:29:03;;;;;;;;;;;1.30;99.90;;;;;;5088272;27;19935;-68
2024/01/07 13:31:29;;;;;;;;;;;1.50;99.90;;;;;;5079976;27;19924;-68
2024/01/07 13:33:55;;;;;;;;;;;1.40;99.90;;;;;;5052710;27;20530;-68
2024/01/07 13:36:20;;;;;;;;;;;1.50;99.90;;;;;;5068924;27;20011;-67
2024/01/07 13:38:49;;;;;;;;;;;1.40;99.90;;;;;;5079346;27;19973;-67
2024/01/07 13:41:16;;;;;;;;;;;1.30;99.90;;;;;;5068756;27;19927;-67
2024/01/07 13:43:42;;;;;;;;;;;1.30;99.90;;;;;;5065754;28;21547;-67
2024/01/07 13:46:08;;;;;;;;;;;1.30;99.90;;;;;;5067779;28;20441;-67
2024/01/07 13:48:34;;;;;;;;;;;1.30;99.90;;;;;;5065851;28;20018;-67
2024/01/07 13:51:00;;;;;;;;;;;1.20;99.90;;;;;;5061521;28;19928;-67
2024/01/07 13:53:26;;;;;;;;;;;1.10;99.90;;;;;;5077027;28;19934;-67
2024/01/07 13:55:51;;;;;;;;;;;1.00;99.90;;;;;;5060926;28;20479;-67
2024/01/07 13:58:17;;;;;;;;;;;1.00;99.90;;;;;;5075713;28;19953;-67
2024/01/07 14:00:42;;;;;;;;;;;0.90;99.90;;;;;;5066557;28;20009;-67
2024/01/07 14:03:08;;;;;;;;;;;0.80;99.90;;;;;;5075425;28;19923;-67
2024/01/07 14:05:34;;;;;;;;;;;0.80;99.90;;;;;;5057148;28;19963;-67
2024/01/07 14:07:59;;;;;;;;;;;0.70;99.90;;;;;;5062466;28;20359;-67
2024/01/07 14:10:25;;;;;;;;;;;1.30;99.90;;;;;;5072574;28;19927;-67
2024/01/07 14:12:51;;;;;;;;;;;0.60;99.90;;;;;;5055459;28;19924;-67
2024/01/07 14:15:20;;;;;;;;;;;0.60;99.90;;;;;;5081922;28;20617;-67